createdAt,value
2022-07-31T00:00:25.668Z,1.00
2022-07-31T00:02:52.962Z,1.10
2022-07-31T00:05:20.386Z,0.90
2022-07-31T00:07:47.740Z,1.00
2022-07-31T00:10:15.144Z,0.98
2022-07-31T00:12:42.622Z,0.88
2022-07-31T00:15:10.961Z,1.10
2022-07-31T00:17:39.511Z,1.10
2022-07-31T00:20:07.797Z,1.17
2022-07-31T00:22:35.569Z,0.93
2022-07-31T00:25:03.013Z,0.80
2022-07-31T00:27:30.356Z,0.90
2022-07-31T00:29:57.634Z,1.00
2022-07-31T00:32:24.950Z,0.90
2022-07-31T00:34:52.488Z,0.90
2022-07-31T00:37:19.859Z,0.95
2022-07-31T00:39:47.119Z,0.90
2022-07-31T00:42:24.796Z,1.00
2022-07-31T00:44:52.472Z,0.98
2022-07-31T00:47:22.325Z,0.82
2022-07-31T00:49:53.166Z,1.10
2022-07-31T00:52:21.209Z,1.13
2022-07-31T00:54:48.752Z,0.90
2022-07-31T00:57:16.432Z,0.82
2022-07-31T00:59:43.897Z,1.20
2022-07-31T01:02:11.541Z,0.77
2022-07-31T01:04:41.684Z,1.05
2022-07-31T01:07:09.304Z,1.00
2022-07-31T01:09:36.719Z,0.90
2022-07-31T01:12:21.001Z,0.80
2022-07-31T01:14:54.307Z,1.27
2022-07-31T01:17:24.849Z,0.90
2022-07-31T01:19:53.383Z,1.00
2022-07-31T01:22:58.069Z,1.05
2022-07-31T01:25:50.342Z,0.85
2022-07-31T01:28:51.485Z,1.05
2022-07-31T01:31:27.159Z,1.00
2022-07-31T01:34:11.034Z,0.80
2022-07-31T01:36:44.371Z,1.20
2022-07-31T01:39:12.860Z,0.90
2022-07-31T01:41:46.580Z,1.02
2022-07-31T01:44:15.842Z,0.80
2022-07-31T01:46:46.719Z,0.80
2022-07-31T01:49:15.966Z,1.13
2022-07-31T01:51:45.635Z,0.93
2022-07-31T01:54:14.435Z,0.80
2022-07-31T01:56:42.133Z,0.88
2022-07-31T01:59:20.436Z,1.05
2022-07-31T02:01:51.767Z,0.80
2022-07-31T02:04:21.582Z,1.05
2022-07-31T02:06:50.942Z,0.85
2022-07-31T02:09:19.941Z,0.75
2022-07-31T02:11:54.485Z,0.90
2022-07-31T02:14:23.169Z,0.98
2022-07-31T02:16:50.744Z,0.80
2022-07-31T02:19:19.922Z,0.90
2022-07-31T02:21:47.300Z,0.90
2022-07-31T02:24:14.765Z,0.82
2022-07-31T02:26:42.192Z,1.08
2022-07-31T02:29:19.726Z,0.85
2022-07-31T02:32:02.057Z,0.90
2022-07-31T02:34:32.457Z,0.75
2022-07-31T02:37:01.899Z,0.93
2022-07-31T02:39:32.035Z,0.93
2022-07-31T02:42:01.751Z,0.90
2022-07-31T02:44:34.502Z,0.90
2022-07-31T02:47:05.133Z,0.93
2022-07-31T02:49:36.214Z,0.90
2022-07-31T02:52:05.613Z,0.82
2022-07-31T02:54:36.880Z,0.90
2022-07-31T02:57:04.348Z,1.00
2022-07-31T02:59:32.212Z,0.85
2022-07-31T03:01:59.853Z,1.00
2022-07-31T03:04:27.199Z,0.80
2022-07-31T03:06:54.439Z,1.08
2022-07-31T03:09:21.800Z,1.00
2022-07-31T03:11:49.100Z,0.90
2022-07-31T03:14:17.475Z,1.20
2022-07-31T03:16:46.973Z,1.25
2022-07-31T03:19:15.126Z,0.90
2022-07-31T03:21:43.389Z,1.05
2022-07-31T03:24:11.947Z,1.08
2022-07-31T03:26:39.373Z,1.00
2022-07-31T03:29:06.659Z,1.10
2022-07-31T03:31:54.117Z,1.00
2022-07-31T03:34:22.086Z,1.20
2022-07-31T03:36:52.448Z,1.10
2022-07-31T03:39:19.794Z,1.13
2022-07-31T03:41:48.266Z,1.30
2022-07-31T03:44:15.648Z,1.40
2022-07-31T03:46:43.282Z,1.20
2022-07-31T03:49:10.679Z,1.48
2022-07-31T03:51:38.161Z,1.20
2022-07-31T03:54:05.595Z,1.17
2022-07-31T03:56:34.409Z,1.30
2022-07-31T03:59:03.035Z,1.40
2022-07-31T04:01:57.747Z,1.27
2022-07-31T04:04:19.279Z,1.40
2022-07-31T04:06:46.579Z,1.40
2022-07-31T04:09:18.613Z,1.70
2022-07-31T04:11:46.771Z,1.67
2022-07-31T04:14:14.075Z,1.30
2022-07-31T04:16:41.385Z,1.38
2022-07-31T04:19:08.761Z,1.50
2022-07-31T04:21:36.455Z,1.52
2022-07-31T04:24:03.815Z,1.30
2022-07-31T04:26:31.199Z,1.50
2022-07-31T04:28:58.589Z,1.80
2022-07-31T04:31:25.945Z,1.48
2022-07-31T04:33:56.539Z,1.50
2022-07-31T04:36:29.881Z,1.73
2022-07-31T04:38:58.872Z,1.73
2022-07-31T04:41:26.173Z,1.85
2022-07-31T04:43:53.775Z,1.92
2022-07-31T04:46:21.371Z,1.70
2022-07-31T04:48:49.215Z,1.73
2022-07-31T04:51:18.771Z,1.60
2022-07-31T04:53:47.524Z,1.38
2022-07-31T04:56:33.446Z,1.63
2022-07-31T04:59:07.305Z,1.88
2022-07-31T05:01:34.940Z,1.90
2022-07-31T05:04:02.519Z,1.67
2022-07-31T05:06:43.492Z,1.95
2022-07-31T05:09:18.389Z,1.52
2022-07-31T05:11:47.543Z,1.80
2022-07-31T05:14:16.882Z,1.67
2022-07-31T05:16:44.421Z,1.83
2022-07-31T05:19:13.629Z,1.52
2022-07-31T05:21:45.994Z,1.80
2022-07-31T05:24:22.521Z,1.70
2022-07-31T05:26:59.911Z,1.70
2022-07-31T05:29:27.275Z,1.50
2022-07-31T05:31:59.924Z,1.60
2022-07-31T05:34:32.082Z,1.70
2022-07-31T05:37:01.667Z,1.88
2022-07-31T05:39:30.205Z,2.35
2022-07-31T05:41:57.662Z,2.00
2022-07-31T05:44:25.434Z,1.90
2022-07-31T05:49:19.678Z,1.83
2022-07-31T05:51:47.576Z,2.08
2022-07-31T05:54:15.114Z,2.00
2022-07-31T05:56:42.736Z,1.90
2022-07-31T05:59:10.078Z,2.05
2022-07-31T06:01:37.832Z,2.15
2022-07-31T06:04:05.602Z,1.95
2022-07-31T06:06:32.932Z,1.73
2022-07-31T06:09:04.346Z,2.15
2022-07-31T06:11:32.416Z,1.73
2022-07-31T06:13:59.755Z,1.88
2022-07-31T06:16:27.098Z,1.70
2022-07-31T06:18:54.430Z,2.08
2022-07-31T06:23:47.859Z,2.08
2022-07-31T06:26:15.509Z,2.00
2022-07-31T06:28:48.897Z,1.90
2022-07-31T06:31:21.425Z,1.83
2022-07-31T06:33:50.066Z,2.10
2022-07-31T06:36:18.917Z,2.00
2022-07-31T06:38:46.455Z,2.00
2022-07-31T06:41:32.905Z,1.85
2022-07-31T06:44:00.287Z,2.28
2022-07-31T06:46:27.565Z,2.20
2022-07-31T06:48:54.911Z,2.67
2022-07-31T06:51:31.400Z,2.00
2022-07-31T06:54:00.535Z,2.22
2022-07-31T06:56:28.663Z,2.40
2022-07-31T06:58:56.107Z,2.00
2022-07-31T07:01:23.588Z,1.95
2022-07-31T07:03:51.031Z,2.20
2022-07-31T07:06:18.775Z,2.00
2022-07-31T07:08:46.127Z,1.85
2022-07-31T07:11:14.024Z,1.80
2022-07-31T07:13:46.075Z,1.75
2022-07-31T07:16:15.117Z,2.08
2022-07-31T07:18:45.281Z,1.83
2022-07-31T07:21:12.637Z,1.80
2022-07-31T07:23:40.584Z,1.88
2022-07-31T07:26:08.293Z,2.22
2022-07-31T07:28:35.907Z,1.90
2022-07-31T07:31:04.395Z,2.05
2022-07-31T07:33:40.789Z,2.20
2022-07-31T07:36:22.812Z,2.00
2022-07-31T07:38:55.405Z,2.10
2022-07-31T07:41:24.459Z,2.05
2022-07-31T07:43:52.912Z,2.10
2022-07-31T07:46:22.065Z,2.15
2022-07-31T07:48:51.125Z,2.00
2022-07-31T07:51:19.493Z,2.20
2022-07-31T07:53:47.117Z,1.80
2022-07-31T07:56:15.856Z,2.03
2022-07-31T07:58:43.317Z,1.85
2022-07-31T08:01:10.752Z,1.70
2022-07-31T08:03:50.311Z,2.08
2022-07-31T08:06:23.362Z,2.05
2022-07-31T08:08:50.832Z,2.30
2022-07-31T08:11:18.805Z,2.40
2022-07-31T08:13:50.856Z,2.38
2022-07-31T08:16:20.221Z,2.10
2022-07-31T08:18:48.145Z,2.20
2022-07-31T08:21:15.572Z,3.42
2022-07-31T08:23:42.982Z,5.05
2022-07-31T08:26:10.312Z,5.90
2022-07-31T08:28:39.004Z,6.32
2022-07-31T08:31:06.553Z,7.45
2022-07-31T08:33:33.812Z,6.72
2022-07-31T08:36:01.501Z,7.50
2022-07-31T08:38:28.986Z,7.30
2022-07-31T08:40:56.477Z,8.15
2022-07-31T08:44:02.129Z,8.27
2022-07-31T08:46:13.713Z,9.10
2022-07-31T08:48:42.305Z,9.27
2022-07-31T08:51:12.577Z,9.45
2022-07-31T08:53:42.330Z,10.25
2022-07-31T08:56:10.698Z,9.45
2022-07-31T08:58:39.927Z,8.73
2022-07-31T09:01:11.386Z,9.73
2022-07-31T09:03:39.113Z,9.80
2022-07-31T09:06:06.831Z,10.15
2022-07-31T09:08:36.061Z,11.00
2022-07-31T09:11:11.523Z,11.38
2022-07-31T09:13:39.713Z,11.55
2022-07-31T09:16:07.455Z,11.32
2022-07-31T09:18:35.170Z,11.57
2022-07-31T09:21:07.185Z,10.95
2022-07-31T09:23:43.667Z,9.95
2022-07-31T09:26:10.974Z,10.35
2022-07-31T09:28:44.586Z,9.50
2022-07-31T09:31:13.960Z,10.07
2022-07-31T09:33:46.061Z,10.07
2022-07-31T09:36:14.163Z,9.95
2022-07-31T09:38:43.420Z,8.70
2022-07-31T09:41:26.850Z,8.45
2022-07-31T09:44:09.979Z,8.68
2022-07-31T09:46:48.285Z,9.07
2022-07-31T09:49:16.178Z,8.07
2022-07-31T09:51:48.242Z,8.98
2022-07-31T09:54:22.946Z,8.13
2022-07-31T09:56:50.396Z,8.50
2022-07-31T09:59:18.294Z,8.50
2022-07-31T10:01:50.967Z,8.30
2022-07-31T10:04:20.616Z,7.95
2022-07-31T10:06:49.373Z,7.65
2022-07-31T10:09:19.546Z,8.43
2022-07-31T10:11:48.548Z,7.75
2022-07-31T10:14:31.470Z,8.13
2022-07-31T10:17:04.814Z,6.68
2022-07-31T10:19:41.911Z,6.35
2022-07-31T10:22:12.403Z,6.53
2022-07-31T10:24:45.403Z,6.07
2022-07-31T10:27:14.951Z,6.28
2022-07-31T10:29:43.143Z,5.93
2022-07-31T10:32:10.731Z,5.50
2022-07-31T10:34:38.846Z,5.15
2022-07-31T10:37:36.406Z,4.97
2022-07-31T10:40:25.146Z,4.38
2022-07-31T10:43:13.007Z,4.07
2022-07-31T10:45:49.122Z,4.22
2022-07-31T10:48:16.616Z,4.35
2022-07-31T10:50:44.488Z,4.55
2022-07-31T10:53:13.673Z,5.15
2022-07-31T10:55:41.448Z,5.18
2022-07-31T10:58:21.837Z,5.40
2022-07-31T11:00:53.284Z,5.45
2022-07-31T11:03:22.384Z,5.10
2022-07-31T11:06:01.942Z,5.70
2022-07-31T11:08:40.635Z,5.47
2022-07-31T11:11:08.000Z,4.57
2022-07-31T11:13:55.314Z,4.53
2022-07-31T11:16:22.871Z,4.75
2022-07-31T11:18:59.020Z,4.72
2022-07-31T11:21:39.269Z,4.28
2022-07-31T11:24:23.686Z,4.38
2022-07-31T11:26:56.160Z,4.60
2022-07-31T11:30:00.249Z,4.05
2022-07-31T11:32:26.119Z,4.13
2022-07-31T11:34:57.844Z,3.80
2022-07-31T11:37:31.838Z,4.20
2022-07-31T11:40:14.023Z,3.80
2022-07-31T11:42:46.229Z,4.45
2022-07-31T11:45:15.429Z,4.45
2022-07-31T11:48:12.762Z,4.93
2022-07-31T11:50:43.025Z,4.57
2022-07-31T11:53:11.223Z,3.60
2022-07-31T11:55:59.308Z,3.83
2022-07-31T11:58:28.192Z,3.72
2022-07-31T12:01:03.758Z,3.90
2022-07-31T12:03:36.440Z,3.85
2022-07-31T12:06:05.477Z,3.75
2022-07-31T12:08:34.851Z,3.88
2022-07-31T12:11:04.490Z,4.25
2022-07-31T12:13:32.367Z,8.23
2022-07-31T12:16:06.679Z,6.05
2022-07-31T12:18:51.452Z,5.82
2022-07-31T12:23:51.978Z,5.10
2022-07-31T12:26:33.109Z,4.22
2022-07-31T12:29:09.346Z,4.10
2022-07-31T12:31:52.432Z,3.75
2022-07-31T12:34:38.370Z,3.60
2022-07-31T12:37:13.966Z,3.65
2022-07-31T12:39:54.366Z,3.83
2022-07-31T12:42:30.927Z,4.00
2022-07-31T12:45:18.128Z,3.30
2022-07-31T12:47:51.938Z,3.95
2022-07-31T12:50:24.353Z,4.95
2022-07-31T12:52:52.091Z,5.18
2022-07-31T12:55:19.718Z,4.50
2022-07-31T12:57:51.006Z,4.65
2022-07-31T13:00:22.529Z,4.40
2022-07-31T13:02:50.987Z,4.45
2022-07-31T13:05:19.106Z,4.20
2022-07-31T13:07:46.610Z,3.47
2022-07-31T13:10:19.017Z,3.53
2022-07-31T13:12:52.539Z,4.18
2022-07-31T13:15:23.448Z,3.70
2022-07-31T13:17:51.284Z,4.20
2022-07-31T13:20:19.441Z,4.30
2022-07-31T13:22:46.720Z,4.03
2022-07-31T13:25:14.591Z,3.75
2022-07-31T13:27:42.125Z,3.22
2022-07-31T13:30:10.601Z,3.35
2022-07-31T13:32:37.992Z,3.70
2022-07-31T13:35:26.525Z,3.72
2022-07-31T13:37:54.164Z,3.60
2022-07-31T13:40:44.594Z,3.85
2022-07-31T13:43:12.010Z,3.70
2022-07-31T13:45:39.440Z,3.55
2022-07-31T13:48:09.755Z,3.70
2022-07-31T13:50:39.882Z,3.35
2022-07-31T13:53:07.885Z,3.85
2022-07-31T13:55:35.310Z,4.28
2022-07-31T13:58:03.004Z,3.80
2022-07-31T14:00:30.826Z,3.67
2022-07-31T14:02:58.648Z,4.35
2022-07-31T14:05:27.446Z,4.43
2022-07-31T14:07:55.833Z,4.00
2022-07-31T14:10:23.950Z,4.65
2022-07-31T14:12:52.598Z,4.28
2022-07-31T14:15:20.085Z,3.92
2022-07-31T14:17:47.408Z,4.20
2022-07-31T14:20:14.718Z,4.72
2022-07-31T14:22:42.818Z,5.43
2022-07-31T14:25:12.121Z,4.90
2022-07-31T14:27:39.778Z,5.70
2022-07-31T14:30:08.838Z,5.20
2022-07-31T14:32:36.387Z,5.28
2022-07-31T14:35:08.138Z,5.25
2022-07-31T14:37:36.715Z,4.80
2022-07-31T14:40:05.505Z,4.90
2022-07-31T14:42:33.068Z,4.75
2022-07-31T14:45:02.928Z,4.00
2022-07-31T14:47:31.817Z,4.10
2022-07-31T14:50:09.606Z,3.80
2022-07-31T14:52:38.340Z,3.72
2022-07-31T14:55:06.321Z,3.88
2022-07-31T14:57:33.702Z,3.90
2022-07-31T15:00:01.157Z,4.05
2022-07-31T15:02:28.791Z,3.95
2022-07-31T15:04:56.275Z,3.80
2022-07-31T15:07:45.764Z,3.80
2022-07-31T15:10:12.205Z,4.50
2022-07-31T15:12:40.208Z,3.88
2022-07-31T15:15:08.724Z,4.32
2022-07-31T15:17:36.117Z,4.22
2022-07-31T15:20:04.038Z,4.20
2022-07-31T15:22:31.416Z,4.90
2022-07-31T15:24:58.672Z,4.80
2022-07-31T15:27:25.982Z,4.35
2022-07-31T15:30:05.765Z,4.47
2022-07-31T15:32:39.000Z,4.28
2022-07-31T15:35:09.169Z,3.53
2022-07-31T15:37:41.414Z,4.05
2022-07-31T15:40:11.347Z,3.85
2022-07-31T15:42:43.020Z,3.30
2022-07-31T15:45:13.054Z,3.22
2022-07-31T15:47:41.443Z,3.47
2022-07-31T15:50:11.410Z,3.42
2022-07-31T15:52:38.896Z,4.43
2022-07-31T15:55:07.476Z,4.25
2022-07-31T15:57:34.862Z,4.72
2022-07-31T16:00:02.734Z,4.95
2022-07-31T16:02:30.067Z,5.47
2022-07-31T16:05:02.339Z,4.03
2022-07-31T16:08:34.728Z,4.65
2022-07-31T16:10:26.971Z,5.65
2022-07-31T16:12:54.577Z,6.10
2022-07-31T16:15:21.864Z,5.43
2022-07-31T16:17:49.219Z,5.57
2022-07-31T16:20:27.101Z,5.30
2022-07-31T16:23:01.432Z,5.20
2022-07-31T16:27:59.918Z,5.47
2022-07-31T16:30:27.457Z,5.30
2022-07-31T16:32:55.093Z,4.80
2022-07-31T16:35:22.875Z,5.13
2022-07-31T16:37:53.286Z,4.68
2022-07-31T16:40:31.083Z,5.30
2022-07-31T16:43:50.840Z,5.07
2022-07-31T16:45:54.597Z,5.15
2022-07-31T16:48:21.945Z,5.22
2022-07-31T16:50:54.026Z,4.65
2022-07-31T16:54:11.727Z,5.13
2022-07-31T16:56:15.152Z,4.88
2022-07-31T16:58:43.883Z,5.20
2022-07-31T17:01:58.292Z,5.22
2022-07-31T17:04:03.638Z,5.47
2022-07-31T17:06:36.188Z,4.70
2022-07-31T17:09:16.422Z,4.50
2022-07-31T17:11:47.401Z,4.13
2022-07-31T17:14:15.454Z,4.78
2022-07-31T17:16:47.102Z,5.20
2022-07-31T17:19:41.753Z,4.07
2022-07-31T17:22:05.411Z,3.50
2022-07-31T17:24:36.601Z,3.85
2022-07-31T17:27:06.254Z,3.78
2022-07-31T17:29:33.812Z,3.72
2022-07-31T17:32:01.069Z,3.28
2022-07-31T17:34:28.452Z,3.53
2022-07-31T17:36:56.319Z,3.80
2022-07-31T17:39:26.213Z,3.22
2022-07-31T17:41:57.616Z,3.00
2022-07-31T17:44:25.042Z,3.30
2022-07-31T17:46:53.064Z,3.55
2022-07-31T17:49:20.908Z,3.13
2022-07-31T17:51:59.252Z,3.80
2022-07-31T17:54:30.355Z,3.55
2022-07-31T17:56:58.517Z,4.57
2022-07-31T17:59:26.421Z,3.72
2022-07-31T18:01:59.830Z,5.80
2022-07-31T18:04:32.987Z,5.35
2022-07-31T18:07:01.593Z,4.70
2022-07-31T18:09:29.225Z,4.28
2022-07-31T18:11:57.746Z,4.88
2022-07-31T18:14:25.683Z,4.72
2022-07-31T18:16:53.577Z,4.25
2022-07-31T18:19:22.018Z,4.00
2022-07-31T18:21:50.818Z,3.88
2022-07-31T18:24:18.739Z,3.70
2022-07-31T18:26:46.245Z,3.65
2022-07-31T18:29:13.573Z,3.70
2022-07-31T18:31:40.948Z,4.30
2022-07-31T18:34:08.342Z,3.63
2022-07-31T18:36:36.394Z,3.10
2022-07-31T18:39:05.138Z,3.63
2022-07-31T18:41:34.172Z,3.22
2022-07-31T18:44:01.649Z,3.38
2022-07-31T18:46:29.082Z,3.80
2022-07-31T18:48:56.921Z,4.40
2022-07-31T18:51:25.652Z,3.45
2022-07-31T18:53:54.500Z,3.65
2022-07-31T18:56:25.911Z,3.92
2022-07-31T18:58:54.142Z,3.85
2022-07-31T19:01:21.955Z,3.00
2022-07-31T19:03:49.693Z,4.03
2022-07-31T19:06:17.267Z,3.63
2022-07-31T19:08:44.713Z,3.35
2022-07-31T19:11:12.462Z,3.17
2022-07-31T19:13:39.736Z,3.20
2022-07-31T19:16:07.187Z,3.22
2022-07-31T19:18:34.516Z,3.38
2022-07-31T19:21:18.996Z,3.30
2022-07-31T19:23:49.903Z,3.22
2022-07-31T19:26:17.537Z,3.25
2022-07-31T19:28:44.878Z,3.80
2022-07-31T19:31:13.304Z,3.38
2022-07-31T19:33:41.168Z,3.03
2022-07-31T19:36:10.722Z,3.28
2022-07-31T19:38:38.085Z,3.72
2022-07-31T19:41:05.406Z,3.08
2022-07-31T19:43:33.236Z,3.60
2022-07-31T19:46:10.741Z,2.83
2022-07-31T19:48:44.858Z,2.70
2022-07-31T19:51:15.098Z,3.20
2022-07-31T19:53:43.485Z,3.35
2022-07-31T19:56:14.686Z,3.47
2022-07-31T19:58:45.630Z,3.45
2022-07-31T20:01:14.329Z,3.17
2022-07-31T20:03:41.800Z,3.42
2022-07-31T20:06:09.256Z,3.60
2022-07-31T20:08:36.631Z,3.70
2022-07-31T20:11:05.284Z,3.53
2022-07-31T20:13:33.740Z,3.40
2022-07-31T20:16:01.708Z,3.58
2022-07-31T20:18:29.825Z,3.53
2022-07-31T20:21:03.535Z,4.15
2022-07-31T20:23:33.968Z,3.25
2022-07-31T20:26:01.567Z,2.78
2022-07-31T20:28:29.202Z,3.05
2022-07-31T20:30:56.732Z,3.17
2022-07-31T20:33:24.132Z,2.53
2022-07-31T20:35:51.522Z,3.65
2022-07-31T20:38:22.858Z,3.17
2022-07-31T20:40:55.376Z,3.30
2022-07-31T20:43:28.293Z,2.88
2022-07-31T20:45:57.822Z,3.15
2022-07-31T20:48:32.188Z,2.95
2022-07-31T20:51:01.686Z,2.60
2022-07-31T20:53:29.832Z,2.95
2022-07-31T20:55:57.737Z,2.80
2022-07-31T20:58:26.112Z,3.33
2022-07-31T21:00:53.939Z,3.10
2022-07-31T21:03:21.779Z,2.72
2022-07-31T21:05:49.811Z,2.67
2022-07-31T21:08:17.528Z,2.40
2022-07-31T21:10:45.274Z,2.90
2022-07-31T21:13:13.256Z,2.60
2022-07-31T21:15:44.798Z,2.85
2022-07-31T21:18:17.750Z,2.78
2022-07-31T21:20:51.127Z,2.40
2022-07-31T21:23:25.372Z,2.40
2022-07-31T21:25:53.970Z,2.58
2022-07-31T21:28:22.983Z,2.70
2022-07-31T21:30:50.948Z,2.60
2022-07-31T21:33:18.631Z,2.50
2022-07-31T21:35:46.780Z,2.38
2022-07-31T21:38:17.543Z,2.40
2022-07-31T21:40:46.093Z,2.60
2022-07-31T21:43:16.715Z,2.50
2022-07-31T21:45:55.146Z,2.20
2022-07-31T21:48:25.511Z,2.28
2022-07-31T21:50:53.561Z,2.08
2022-07-31T21:53:21.176Z,2.20
2022-07-31T21:55:48.521Z,1.90
2022-07-31T21:58:16.122Z,1.95
2022-07-31T22:00:44.053Z,2.50
2022-07-31T22:03:11.477Z,1.92
2022-07-31T22:05:57.804Z,2.28
2022-07-31T22:08:25.119Z,2.33
2022-07-31T22:10:53.510Z,2.13
2022-07-31T22:13:20.976Z,2.38
2022-07-31T22:15:56.993Z,2.10
2022-07-31T22:18:30.252Z,2.22
2022-07-31T22:20:58.553Z,2.30
2022-07-31T22:23:27.461Z,2.30
2022-07-31T22:25:55.747Z,2.15
2022-07-31T22:28:24.672Z,2.20
2022-07-31T22:30:52.607Z,2.20
2022-07-31T22:33:21.696Z,2.28
2022-07-31T22:35:58.548Z,2.28
2022-07-31T22:38:29.287Z,2.08
2022-07-31T22:40:57.187Z,2.50
2022-07-31T22:44:13.043Z,2.42
2022-07-31T22:46:13.311Z,2.45
2022-07-31T22:48:41.028Z,2.33
2022-07-31T22:51:08.931Z,2.50
2022-07-31T22:53:37.889Z,2.20
2022-07-31T22:56:05.332Z,2.40
2022-07-31T22:58:32.586Z,2.30
2022-07-31T23:00:59.837Z,2.50
2022-07-31T23:03:27.128Z,2.25
2022-07-31T23:06:05.310Z,2.00
2022-07-31T23:08:41.694Z,2.13
2022-07-31T23:11:08.942Z,2.13
2022-07-31T23:13:36.252Z,2.50
2022-07-31T23:16:03.616Z,2.10
2022-07-31T23:18:30.872Z,2.30
2022-07-31T23:20:58.479Z,2.40
2022-07-31T23:23:25.762Z,2.03
2022-07-31T23:25:53.068Z,2.00
2022-07-31T23:28:20.392Z,2.30
2022-07-31T23:30:47.660Z,2.00
2022-07-31T23:33:16.957Z,2.30
2022-07-31T23:35:44.383Z,2.00
2022-07-31T23:38:11.970Z,2.53
2022-07-31T23:40:39.245Z,2.15
2022-07-31T23:43:06.739Z,2.17
2022-07-31T23:45:35.912Z,2.03
2022-07-31T23:48:05.203Z,1.70
2022-07-31T23:50:32.631Z,2.00
2022-07-31T23:53:00.023Z,2.22
2022-07-31T23:55:27.287Z,1.98
2022-07-31T23:57:54.737Z,2.03
